Hanalei, HI

7:20 AM HST on February 08, 2016 (GMT -1000)
North Shore of Kauai | | Change Station
CLOSE
Current Station
Personal Weather Station
Location: Princeville, HI
Elevation: 200 ft
Nearby Weather Stations
Active Advisory: High Surf Advisory

Elev 200 ft 22.23 °N, 159.48 °W | Updated 2 seconds ago

Clear
Clear
59.9 °F
Feels Like 59.9 °F
N
2.5
Wind Variable Wind from SSW
Gusts 2.9 mph

Today
High -- | Low -- °F
--% Chance of Precip.
Yesterday
High -- | Low -- °F
Precip. -- in
Pressure 30.08 in
Visibility 10.0 miles
Clouds Clear
Dew Point 53 °F
Humidity 79%
Rainfall 0.00 in
Snow Depth Not available.
7:13 AM 6:30 PM
New Moon, 0% visible
METAR PHLI 081653Z 28009KT 10SM CLR 13/09 A3008 RMK AO2 SLP186 T01320089
Pressure 30.08 in
Visibility 10.0 miles
Clouds Clear
Dew Point 53 °F
Humidity 79%
Rainfall 0.00 in
Snow Depth Not available.
7:13 AM 6:30 PM
New Moon, 0% visible
METAR PHLI 081653Z 28009KT 10SM CLR 13/09 A3008 RMK AO2 SLP186 T01320089

10-Day Weather Forecast

Almanac

Astronomy

Feb. 08, 2016 Rise Set
Actual Time
Civil Twilight
Nautical Twilight
Astronomical Twilight
Moon
Length of Visible Light
Length of Day
Tomorrow will be .
, % of the Moon is Illuminated

Today's Extremes

State Highs State Lows

Community

WunderPhotos

Upload Photos

1,891,471 photos uploaded!

WunderBlog® & News

Nearby

Air Quality

  Air Quality AQ Index Pollutant
Not available.

Snow Depth

Station Depth Elevation

Earthquake Activity

City Distance Mag. Time & Date
Minimum magnitude displayed is 2.5.

Coastal Water Temperatures

Place Temperature

Stations

Nearby Weather Stations

Station Location Temp. Windchill Dew Point Humidity Wind Precip. Elev Updated Type
                   

Watches & Warnings

High Surf Advisory
Issued: 3:08 AM HST Feb. 8, 2016 – National Weather Service

... High surf advisory now in effect until 6 am HST Tuesday...

* surf... along north and west facing shores of Kauai and Niihau
and north facing shores of Oahu Molokai and Maui... 12 to 16 feet.

* Timing... through 6 am HST Tuesday.

* Impacts... moderate... expect strong breaking waves... shore
break... and strong longshore and rip currents making swimming
difficult and dangerous.

Precautionary/preparedness actions...

Beachgoers... swimmers... and surfers should heed all advice given
by ocean safety officials and exercise caution.